Time;durP1;ratioP1;P1;durP2;ratioP2;P2;SDS_P1;SDS_P2;PMS_P1;PMS_P2;Temp;Humidity;BMP_temperature;BMP_pressure;BME280_temperature;BME280_humidity;BME280_pressure;Samples;Min_cycle;Max_cycle;Signal;HPM_P1;HPM_P2
2023/04/01 00:00:54;;;;;;;12.07;9.90;;;10.30;99.90;;;;;;4962259;28;20064;-80
2023/04/01 00:03:21;;;;;;;13.13;9.77;;;10.30;99.90;;;;;;4995271;28;20046;-80
2023/04/01 00:05:47;;;;;;;13.53;10.70;;;10.30;99.90;;;;;;4993207;28;20073;-81
2023/04/01 00:08:13;;;;;;;17.77;10.90;;;10.30;99.90;;;;;;4969125;28;20061;-80
2023/04/01 00:10:39;;;;;;;14.07;10.37;;;10.30;99.90;;;;;;4989230;28;20482;-80
2023/04/01 00:13:05;;;;;;;13.23;9.63;;;10.30;99.90;;;;;;4953826;28;20051;-81
2023/04/01 00:15:31;;;;;;;11.13;8.67;;;10.30;99.90;;;;;;4985711;28;20070;-80
2023/04/01 00:17:56;;;;;;;16.27;11.53;;;10.30;99.90;;;;;;4984661;28;20073;-81
2023/04/01 00:20:22;;;;;;;27.13;13.90;;;10.30;99.90;;;;;;4963886;28;20030;-81
2023/04/01 00:22:48;;;;;;;16.90;9.97;;;10.30;99.90;;;;;;4988929;28;20829;-81
2023/04/01 00:25:14;;;;;;;16.57;10.00;;;10.30;99.90;;;;;;5004102;28;20045;-81
2023/04/01 00:27:41;;;;;;;14.33;10.40;;;10.30;99.90;;;;;;4998025;28;20039;-81
2023/04/01 00:30:08;;;;;;;20.90;12.37;;;10.30;99.90;;;;;;4993540;28;20409;-81
2023/04/01 00:32:34;;;;;;;15.53;9.83;;;10.30;99.90;;;;;;5000684;28;20121;-80
2023/04/01 00:35:00;;;;;;;15.80;10.30;;;10.30;99.90;;;;;;4989543;28;20052;-80
2023/04/01 00:37:26;;;;;;;14.73;9.43;;;10.30;99.90;;;;;;5004271;28;20041;-81
2023/04/01 00:39:52;;;;;;;11.97;9.20;;;10.30;99.90;;;;;;4998687;28;20767;-80
2023/04/01 00:42:19;;;;;;;10.43;7.57;;;10.30;99.90;;;;;;5000210;28;20050;-80
2023/04/01 00:44:54;;;;;;;10.77;7.60;;;10.20;99.90;;;;;;4994023;28;20414;-80
2023/04/01 00:47:22;;;;;;;12.87;8.20;;;10.30;99.90;;;;;;4984833;28;20408;-80
2023/04/01 00:49:51;;;;;;;11.60;8.43;;;10.30;99.90;;;;;;4989123;28;20073;-80
2023/04/01 00:52:22;;;;;;;11.20;7.07;;;10.20;99.90;;;;;;5010413;28;20124;-80
2023/04/01 00:54:52;;;;;;;13.03;7.30;;;10.30;99.90;;;;;;4979690;28;20046;-80
2023/04/01 00:57:37;;;;;;;8.40;6.83;;;10.20;99.90;;;;;;4978460;28;20057;-80
2023/04/01 01:00:09;;;;;;;9.77;7.20;;;10.20;99.90;;;;;;4986688;28;20080;-80
2023/04/01 01:02:35;;;;;;;9.23;7.38;;;10.20;99.90;;;;;;5010336;28;20034;-80
2023/04/01 01:05:01;;;;;;;10.60;7.37;;;10.20;99.90;;;;;;5004441;28;20125;-80
2023/04/01 01:07:45;;;;;;;9.73;7.30;;;10.20;99.90;;;;;;4987719;28;20121;-80
2023/04/01 01:10:13;;;;;;;12.53;8.13;;;10.20;99.90;;;;;;5001881;28;20034;-80
2023/04/01 01:12:57;;;;;;;10.90;7.07;;;10.20;99.90;;;;;;4991545;28;20038;-80
2023/04/01 01:15:34;;;;;;;10.63;7.33;;;10.20;99.90;;;;;;4997424;28;20043;-80
2023/04/01 01:18:21;;;;;;;10.40;7.60;;;10.20;99.90;;;;;;4994419;28;20093;-80
2023/04/01 01:21:21;;;;;;;13.17;7.50;;;10.20;99.90;;;;;;4983573;28;20262;-80
2023/04/01 01:24:17;;;;;;;10.43;7.90;;;10.20;99.90;;;;;;4992596;28;20100;-80
2023/04/01 01:26:59;;;;;;;9.83;7.43;;;10.20;99.90;;;;;;4999968;28;20092;-80
2023/04/01 01:30:18;;;;;;;10.70;7.73;;;10.10;99.90;;;;;;5007178;28;20038;-80
2023/04/01 01:33:07;;;;;;;11.50;7.70;;;10.20;99.90;;;;;;4957011;28;20153;-80
2023/04/01 01:35:54;;;;;;;11.53;7.97;;;10.20;99.90;;;;;;4989341;28;20385;-80
2023/04/01 01:38:27;;;;;;;11.20;7.73;;;10.20;99.90;;;;;;4986829;28;20045;-80
2023/04/01 01:40:54;;;;;;;10.10;7.43;;;10.10;99.90;;;;;;4989048;28;20103;-80
2023/04/01 01:43:25;;;;;;;8.40;7.37;;;10.20;99.90;;;;;;5001081;28;20801;-80
2023/04/01 01:46:00;;;;;;;10.83;7.83;;;10.20;99.90;;;;;;4984425;28;20389;-80
2023/04/01 01:48:29;;;;;;;12.27;7.50;;;10.20;99.90;;;;;;5004079;28;20040;-80
2023/04/01 01:50:55;;;;;;;8.70;6.50;;;10.20;99.90;;;;;;4987267;28;20038;-80
2023/04/01 01:53:21;;;;;;;9.00;6.50;;;10.20;99.90;;;;;;4991320;28;20041;-80
2023/04/01 01:55:47;;;;;;;10.10;6.87;;;10.20;99.90;;;;;;4969603;28;20045;-80
2023/04/01 01:58:24;;;;;;;8.53;6.23;;;10.20;99.90;;;;;;4985308;28;20042;-80
2023/04/01 02:01:02;;;;;;;7.57;5.10;;;10.20;99.90;;;;;;4981289;28;20486;-80
2023/04/01 02:03:31;;;;;;;5.70;5.07;;;10.10;99.90;;;;;;4994079;28;20393;-80
2023/04/01 02:05:59;;;;;;;5.87;4.20;;;10.10;99.90;;;;;;4984926;28;20033;-80
2023/04/01 02:08:39;;;;;;;3.80;3.17;;;10.10;99.90;;;;;;4998883;28;20045;-80
2023/04/01 02:11:13;;;;;;;5.40;3.30;;;10.10;99.90;;;;;;4980586;28;20041;-80
2023/04/01 02:13:52;;;;;;;3.93;3.20;;;10.10;99.90;;;;;;4983910;28;20044;-81
2023/04/01 02:16:43;;;;;;;4.23;3.07;;;10.10;99.90;;;;;;4987103;28;20050;-80
2023/04/01 02:19:12;;;;;;;4.57;3.30;;;10.00;99.90;;;;;;4973891;28;20045;-80
2023/04/01 02:21:39;;;;;;;4.80;3.77;;;10.00;99.90;;;;;;5007860;28;20068;-80
2023/04/01 02:24:09;;;;;;;5.43;4.00;;;10.00;99.90;;;;;;4991678;28;20048;-80
2023/04/01 02:26:35;;;;;;;4.30;3.90;;;10.00;99.90;;;;;;4992637;28;20129;-79
2023/04/01 02:29:03;;;;;;;6.33;4.57;;;10.00;99.90;;;;;;4978913;28;20112;-80
2023/04/01 02:31:30;;;;;;;5.50;4.00;;;10.10;99.90;;;;;;4999359;28;20042;-80
2023/04/01 02:33:57;;;;;;;5.73;4.50;;;10.10;99.90;;;;;;4970622;28;20038;-80
2023/04/01 02:36:23;;;;;;;9.60;5.03;;;10.10;99.90;;;;;;4997730;28;20037;-80
2023/04/01 02:38:50;;;;;;;7.87;4.30;;;10.10;99.90;;;;;;5005667;28;20125;-80
2023/04/01 02:41:16;;;;;;;5.93;4.20;;;10.10;99.90;;;;;;4995493;28;20055;-80
2023/04/01 02:43:42;;;;;;;5.40;4.00;;;10.00;99.90;;;;;;4991207;28;20046;-80
2023/04/01 02:46:08;;;;;;;6.07;4.10;;;10.10;99.90;;;;;;4996865;28;20141;-80
2023/04/01 02:48:34;;;;;;;5.70;3.97;;;10.10;99.90;;;;;;4984299;28;20044;-80
2023/04/01 02:51:00;;;;;;;6.27;4.30;;;10.10;99.90;;;;;;4956412;28;20515;-80
2023/04/01 02:53:26;;;;;;;6.03;4.30;;;10.10;99.90;;;;;;4997709;28;20041;-80
2023/04/01 02:55:52;;;;;;;6.47;4.47;;;10.10;99.90;;;;;;4995955;28;20045;-80
2023/04/01 02:58:18;;;;;;;5.70;4.90;;;10.10;99.90;;;;;;4989576;28;20055;-80
2023/04/01 03:00:44;;;;;;;7.67;5.00;;;10.10;99.90;;;;;;5011645;28;20076;-80
2023/04/01 03:03:10;;;;;;;6.53;5.03;;;10.10;99.90;;;;;;4972277;28;20081;-80
2023/04/01 03:05:35;;;;;;;7.03;5.40;;;10.10;99.90;;;;;;5006896;28;20096;-79
2023/04/01 03:08:02;;;;;;;8.90;6.00;;;10.10;99.90;;;;;;4990329;28;20168;-79
2023/04/01 03:10:28;;;;;;;9.83;6.37;;;10.10;99.90;;;;;;5010443;28;20055;-79
2023/04/01 03:12:53;;;;;;;9.93;6.40;;;10.10;99.90;;;;;;4993770;28;20088;-80
2023/04/01 03:15:19;;;;;;;10.93;7.33;;;10.10;99.90;;;;;;5010476;28;20048;-80
2023/04/01 03:17:46;;;;;;;10.80;7.13;;;10.10;99.90;;;;;;4965766;28;20582;-80
2023/04/01 03:20:12;;;;;;;9.13;7.03;;;10.10;99.90;;;;;;5009405;28;20069;-79
2023/04/01 03:22:38;;;;;;;8.50;6.90;;;10.10;99.90;;;;;;5006663;28;20045;-79
2023/04/01 03:25:07;;;;;;;9.90;7.93;;;10.10;99.90;;;;;;5011442;28;20037;-80
2023/04/01 03:27:34;;;;;;;11.73;7.87;;;10.10;99.90;;;;;;5008762;28;20056;-79
2023/04/01 03:29:59;;;;;;;9.77;7.13;;;10.10;99.90;;;;;;4971146;28;20048;-79
2023/04/01 03:32:27;;;;;;;13.53;7.93;;;10.10;99.90;;;;;;4976543;28;20038;-79
2023/04/01 03:34:52;;;;;;;9.17;6.90;;;10.10;99.90;;;;;;5003855;28;20815;-80
2023/04/01 03:37:18;;;;;;;11.50;7.67;;;10.10;99.90;;;;;;4979806;28;20488;-80
2023/04/01 03:39:44;;;;;;;10.53;7.77;;;10.10;99.90;;;;;;4974871;28;20052;-80
2023/04/01 03:42:09;;;;;;;11.10;7.33;;;10.10;99.90;;;;;;4995183;28;20094;-80
2023/04/01 03:44:35;;;;;;;9.50;7.03;;;10.10;99.90;;;;;;4992286;28;20244;-80
2023/04/01 03:47:01;;;;;;;11.83;7.73;;;10.10;99.90;;;;;;4994281;28;20491;-80
2023/04/01 03:49:27;;;;;;;9.40;7.83;;;10.10;99.90;;;;;;4991611;28;20374;-80
2023/04/01 03:51:52;;;;;;;9.93;7.47;;;10.10;99.90;;;;;;4997771;28;20044;-80
2023/04/01 03:54:19;;;;;;;11.43;8.50;;;10.10;99.90;;;;;;4995067;28;20052;-80
2023/04/01 03:56:46;;;;;;;11.00;8.47;;;10.10;99.90;;;;;;5007778;28;20658;-80
2023/04/01 03:59:12;;;;;;;11.53;8.90;;;10.10;99.90;;;;;;4988281;28;20781;-79
2023/04/01 04:01:38;;;;;;;13.23;9.70;;;10.10;99.90;;;;;;4989800;28;20049;-80
2023/04/01 04:04:04;;;;;;;13.83;9.73;;;10.10;99.90;;;;;;4993703;28;20088;-80
2023/04/01 04:06:30;;;;;;;14.17;9.10;;;10.10;99.90;;;;;;4998850;28;20115;-80
2023/04/01 04:08:57;;;;;;;14.97;9.53;;;10.10;99.90;;;;;;4987226;28;20421;-80
2023/04/01 04:11:23;;;;;;;14.03;9.73;;;10.10;99.90;;;;;;5014557;28;20045;-80
2023/04/01 04:13:48;;;;;;;12.97;9.03;;;10.10;99.90;;;;;;4983748;28;20481;-80
2023/04/01 04:16:16;;;;;;;12.33;8.90;;;10.10;99.90;;;;;;5001337;28;20066;-80
2023/04/01 04:18:42;;;;;;;13.80;9.17;;;10.10;99.90;;;;;;4995689;28;20076;-80
2023/04/01 04:21:13;;;;;;;17.23;10.03;;;10.10;99.90;;;;;;5005152;28;20557;-80
2023/04/01 04:23:39;;;;;;;12.87;9.50;;;10.10;99.90;;;;;;5013683;28;20452;-80
2023/04/01 04:26:07;;;;;;;14.33;10.10;;;10.00;99.90;;;;;;5004596;28;20037;-80
2023/04/01 04:28:34;;;;;;;13.93;9.97;;;10.10;99.90;;;;;;4992334;28;20038;-80
2023/04/01 04:31:00;;;;;;;13.67;10.17;;;10.10;99.90;;;;;;4989418;28;20490;-80
2023/04/01 04:33:26;;;;;;;15.97;11.07;;;10.10;99.90;;;;;;4980539;28;20385;-80
2023/04/01 04:35:55;;;;;;;14.57;10.73;;;10.10;99.90;;;;;;4980804;28;20072;-80
2023/04/01 04:38:21;;;;;;;13.13;10.07;;;10.10;99.90;;;;;;5005684;28;20045;-80
2023/04/01 04:40:47;;;;;;;13.37;10.10;;;10.10;99.90;;;;;;4962599;28;20037;-81
2023/04/01 04:43:14;;;;;;;14.50;10.53;;;10.00;99.90;;;;;;4988902;28;20042;-81
2023/04/01 04:45:41;;;;;;;13.67;10.37;;;10.00;99.90;;;;;;5003026;28;20083;-81
2023/04/01 04:48:18;;;;;;;14.53;10.77;;;10.00;99.90;;;;;;4990328;28;20037;-80
2023/04/01 04:50:44;;;;;;;14.17;10.77;;;10.00;99.90;;;;;;4989863;28;20034;-80
2023/04/01 04:53:15;;;;;;;15.63;11.20;;;10.00;99.90;;;;;;5005377;28;20539;-80
2023/04/01 04:55:48;;;;;;;15.40;11.40;;;10.00;99.90;;;;;;5009221;28;20490;-80
2023/04/01 04:58:14;;;;;;;13.93;10.70;;;10.00;99.90;;;;;;5007291;28;20049;-80
2023/04/01 05:00:40;;;;;;;16.37;11.23;;;10.00;99.90;;;;;;4996194;28;20068;-80
2023/04/01 05:03:07;;;;;;;15.77;11.67;;;10.00;99.90;;;;;;4981898;28;20030;-80
2023/04/01 05:05:33;;;;;;;16.90;11.97;;;10.00;99.90;;;;;;5009085;28;20052;-79
2023/04/01 05:07:59;;;;;;;18.67;13.03;;;10.00;99.90;;;;;;4996062;28;20116;-79
2023/04/01 05:10:25;;;;;;;16.50;12.13;;;10.00;99.90;;;;;;5012850;28;20381;-79
2023/04/01 05:12:50;;;;;;;15.60;11.93;;;10.00;99.90;;;;;;4997501;28;20048;-80
2023/04/01 05:15:16;;;;;;;16.87;11.90;;;10.00;99.90;;;;;;4989477;28;20041;-80
2023/04/01 05:17:42;;;;;;;15.07;11.67;;;10.00;99.90;;;;;;4994124;28;20033;-79
2023/04/01 05:20:08;;;;;;;17.80;12.33;;;9.90;99.90;;;;;;4999714;28;20053;-80
2023/04/01 05:22:34;;;;;;;17.07;11.93;;;9.90;99.90;;;;;;5002250;28;20053;-79
2023/04/01 05:24:59;;;;;;;15.33;11.03;;;9.90;99.90;;;;;;4980881;28;20053;-79
2023/04/01 05:27:25;;;;;;;14.53;11.00;;;9.90;99.90;;;;;;4992112;28;20049;-80
2023/04/01 05:29:51;;;;;;;14.77;10.10;;;9.90;99.90;;;;;;4994145;28;20069;-79
2023/04/01 05:32:17;;;;;;;14.03;9.73;;;9.90;99.90;;;;;;4986882;28;20042;-79
2023/04/01 05:34:43;;;;;;;12.77;9.27;;;9.90;99.90;;;;;;4961823;28;20452;-80
2023/04/01 05:37:09;;;;;;;11.67;9.07;;;9.90;99.90;;;;;;4980827;28;20041;-79
2023/04/01 05:39:39;;;;;;;13.60;8.60;;;9.90;99.90;;;;;;4969265;28;20470;-80
2023/04/01 05:42:08;;;;;;;11.67;8.50;;;9.90;99.90;;;;;;4984285;28;20394;-80
2023/04/01 05:44:35;;;;;;;12.50;8.60;;;9.90;99.90;;;;;;4991815;28;20119;-79
2023/04/01 05:47:02;;;;;;;10.50;7.47;;;9.80;99.90;;;;;;5010061;28;20443;-79
2023/04/01 05:49:28;;;;;;;10.10;8.10;;;9.80;99.90;;;;;;4992756;28;20496;-80
2023/04/01 05:51:54;;;;;;;11.47;7.23;;;9.80;99.90;;;;;;4988650;28;20037;-80
2023/04/01 05:54:20;;;;;;;11.03;8.27;;;9.80;99.90;;;;;;5006709;28;20096;-79
2023/04/01 05:56:46;;;;;;;12.17;8.03;;;9.80;99.90;;;;;;4992434;28;20043;-80
2023/04/01 05:59:12;;;;;;;10.10;7.73;;;9.80;99.90;;;;;;5006032;28;20128;-79
2023/04/01 06:01:38;;;;;;;11.17;7.73;;;9.80;99.90;;;;;;5009897;28;20041;-79
2023/04/01 06:04:04;;;;;;;11.43;8.17;;;9.80;99.90;;;;;;4990244;28;20120;-79
2023/04/01 06:06:32;;;;;;;12.50;8.80;;;9.80;99.90;;;;;;4974758;28;20070;-79
2023/04/01 06:09:07;;;;;;;12.00;8.73;;;9.80;99.90;;;;;;5007629;28;20103;-79
2023/04/01 06:11:45;;;;;;;13.93;9.90;;;9.80;99.90;;;;;;5015781;28;20516;-80
2023/04/01 06:14:21;;;;;;;11.57;8.63;;;9.80;99.90;;;;;;5013570;28;20116;-79
2023/04/01 06:17:13;;;;;;;11.77;9.10;;;9.80;99.90;;;;;;5014930;28;20401;-80
2023/04/01 06:19:45;;;;;;;12.45;9.07;;;9.80;99.90;;;;;;5014182;28;20041;-80
2023/04/01 06:22:42;;;;;;;13.20;10.07;;;9.80;99.90;;;;;;5004508;28;20493;-80
2023/04/01 06:25:27;;;;;;;16.70;10.53;;;9.80;99.90;;;;;;5000549;28;20663;-80
2023/04/01 06:28:02;;;;;;;18.07;11.87;;;9.90;99.90;;;;;;4996835;28;20056;-81
2023/04/01 06:30:42;;;;;;;17.03;11.40;;;9.90;99.90;;;;;;4991571;28;20048;-80
2023/04/01 06:33:14;;;;;;;18.30;11.90;;;9.90;99.90;;;;;;5010336;28;20041;-80
2023/04/01 06:35:46;;;;;;;16.92;11.88;;;10.00;99.90;;;;;;5016372;28;20100;-81
2023/04/01 06:38:30;;;;;;;15.25;10.75;;;10.00;99.90;;;;;;5016741;28;20388;-81
2023/04/01 06:41:17;;;;;;;16.50;9.90;;;10.10;99.90;;;;;;4989895;28;20033;-80
2023/04/01 06:43:52;;;;;;;14.87;10.43;;;10.10;99.90;;;;;;4977549;28;20066;-81
2023/04/01 06:46:45;;;;;;;15.50;10.30;;;10.10;99.90;;;;;;4977439;28;20046;-80
2023/04/01 06:49:34;;;;;;;14.17;9.77;;;10.10;99.90;;;;;;4977517;28;20052;-81
2023/04/01 06:52:29;;;;;;;16.73;10.90;;;10.10;99.90;;;;;;4993419;28;20035;-80
2023/04/01 06:55:13;;;;;;;15.43;10.13;;;10.10;99.90;;;;;;4992519;28;20041;-81
2023/04/01 06:57:43;;;;;;;17.47;11.57;;;10.10;99.90;;;;;;4993885;28;20504;-80
2023/04/01 07:00:22;;;;;;;18.77;12.47;;;10.20;99.90;;;;;;5017394;28;20049;-80
2023/04/01 07:02:55;;;;;;;20.10;13.03;;;10.20;99.90;;;;;;4993744;28;20082;-81
2023/04/01 07:05:22;;;;;;;20.40;13.30;;;10.20;99.90;;;;;;4976946;28;20125;-81
2023/04/01 07:07:52;;;;;;;17.70;12.17;;;10.20;99.90;;;;;;5005188;28;20038;-81
2023/04/01 07:10:43;;;;;;;18.73;12.50;;;10.30;99.90;;;;;;5002782;28;20045;-80
2023/04/01 07:13:21;;;;;;;18.53;12.00;;;10.30;99.90;;;;;;5009360;28;20073;-80
2023/04/01 07:16:03;;;;;;;18.00;12.00;;;10.30;99.90;;;;;;4986908;28;20038;-79
2023/04/01 07:18:37;;;;;;;17.50;11.73;;;10.30;99.90;;;;;;5008522;28;20496;-80
2023/04/01 07:21:04;;;;;;;16.27;11.60;;;10.40;99.90;;;;;;5006795;28;20144;-79
2023/04/01 07:23:38;;;;;;;17.93;11.30;;;10.40;99.90;;;;;;4968702;28;20406;-79
2023/04/01 07:26:21;;;;;;;17.33;10.70;;;10.40;99.90;;;;;;4992416;28;20046;-81
2023/04/01 07:28:48;;;;;;;17.27;10.83;;;10.40;99.90;;;;;;4990807;28;20038;-81
2023/04/01 07:31:20;;;;;;;16.70;10.17;;;10.50;99.90;;;;;;4976512;28;20081;-81
2023/04/01 07:34:23;;;;;;;15.10;10.75;;;10.50;99.90;;;;;;4994233;28;20123;-80
2023/04/01 07:37:09;;;;;;;13.53;9.50;;;10.60;99.90;;;;;;5006774;28;20077;-80
2023/04/01 07:39:44;;;;;;;14.67;9.70;;;10.70;99.90;;;;;;5004725;28;20046;-80
2023/04/01 07:42:17;;;;;;;14.40;9.83;;;10.70;99.90;;;;;;4976901;28;20059;-78
2023/04/01 07:44:59;;;;;;;14.60;10.07;;;10.80;99.90;;;;;;4987017;28;20054;-80
2023/04/01 07:47:39;;;;;;;;;;;10.80;99.90;;;;;;4984505;28;20397;-80
2023/04/01 07:50:21;;;;;;;18.23;10.77;;;10.80;99.90;;;;;;5011378;28;19928;-79
2023/04/01 07:53:19;;;;;;;15.50;10.27;;;10.80;99.90;;;;;;5006252;28;20038;-79
2023/04/01 07:56:03;;;;;;;15.57;10.30;;;10.80;99.90;;;;;;4992233;28;20125;-80
2023/04/01 07:58:40;;;;;;;15.70;9.47;;;10.80;99.90;;;;;;4978487;28;20596;-79
2023/04/01 08:01:32;;;;;;;13.40;9.17;;;10.80;99.90;;;;;;4994075;28;20033;-79
2023/04/01 08:04:18;;;;;;;;;;;10.90;99.90;;;;;;4975309;28;20596;-78
2023/04/01 08:06:51;;;;;;;12.50;7.53;;;10.80;99.90;;;;;;4989779;28;19918;-79
2023/04/01 08:09:27;;;;;;;12.03;8.07;;;10.80;99.90;;;;;;4991364;28;20041;-79
2023/04/01 08:12:16;;;;;;;12.37;8.30;;;10.80;99.90;;;;;;4999417;28;20041;-78
2023/04/01 08:15:12;;;;;;;11.97;8.40;;;10.90;99.90;;;;;;5001217;28;20055;-79
2023/04/01 08:18:15;;;;;;;13.20;8.80;;;10.90;99.90;;;;;;4997692;28;20046;-79
2023/04/01 08:20:50;;;;;;;11.67;7.77;;;10.90;99.90;;;;;;5009767;28;20656;-79
2023/04/01 08:23:24;;;;;;;13.03;7.67;;;11.00;99.90;;;;;;4976311;28;20066;-79
2023/04/01 08:26:08;;;;;;;10.87;7.53;;;11.00;99.90;;;;;;4989598;28;20886;-78
2023/04/01 08:29:02;;;;;;;11.47;8.33;;;10.90;99.90;;;;;;4984164;28;20057;-78
2023/04/01 08:31:31;;;;;;;12.03;7.60;;;11.00;99.90;;;;;;4975099;28;20482;-78
2023/04/01 08:33:57;;;;;;;9.18;6.50;;;11.00;99.90;;;;;;4978685;28;20038;-79
2023/04/01 08:36:35;;;;;;;10.87;7.60;;;11.00;99.90;;;;;;4993226;28;20073;-79
2023/04/01 08:39:10;;;;;;;11.77;7.47;;;10.90;99.90;;;;;;4993617;28;20800;-78
2023/04/01 08:42:10;;;;;;;11.10;7.53;;;10.90;99.90;;;;;;4977269;28;20041;-80
2023/04/01 08:44:48;;;;;;;12.13;7.50;;;10.80;99.90;;;;;;4975306;28;20517;-79
2023/04/01 08:47:27;;;;;;;12.10;8.20;;;10.90;99.90;;;;;;4997584;28;20522;-79
2023/04/01 08:50:06;;;;;;;12.53;7.90;;;10.80;99.90;;;;;;4974993;28;20441;-79
2023/04/01 08:53:03;;;;;;;13.13;8.47;;;10.80;99.90;;;;;;4990855;28;20049;-79
2023/04/01 08:55:50;;;;;;;12.20;8.47;;;10.90;99.90;;;;;;4982008;28;20073;-78
2023/04/01 08:58:34;;;;;;;12.27;8.43;;;10.90;99.90;;;;;;4983028;28;20557;-78
2023/04/01 09:01:18;;;;;;;12.57;8.93;;;11.00;99.90;;;;;;4984427;28;20128;-79
2023/04/01 09:04:04;;;;;;;14.43;9.20;;;11.00;99.90;;;;;;4992569;28;20042;-79
2023/04/01 09:07:05;;;;;;;12.57;9.10;;;11.10;99.90;;;;;;4977300;28;20133;-78
2023/04/01 09:09:55;;;;;;;15.60;10.50;;;11.10;99.90;;;;;;5009434;28;20456;-78
2023/04/01 09:12:47;;;;;;;14.87;10.13;;;11.10;99.90;;;;;;5009495;28;20041;-80
2023/04/01 09:16:03;;;;;;;15.35;10.38;;;11.20;99.90;;;;;;4992516;28;20053;-79
2023/04/01 09:18:40;;;;;;;15.90;10.33;;;11.20;99.90;;;;;;4974862;28;20050;-78
2023/04/01 09:21:18;;;;;;;12.93;9.53;;;11.20;99.90;;;;;;4979161;28;20072;-79
2023/04/01 09:23:45;;;;;;;14.90;10.40;;;11.30;99.90;;;;;;4999131;28;20104;-80
2023/04/01 09:26:51;;;;;;;14.30;10.00;;;11.30;99.90;;;;;;4983669;28;20671;-79
2023/04/01 09:29:32;;;;;;;13.90;9.67;;;11.30;99.90;;;;;;5000011;28;20038;-79
2023/04/01 09:32:16;;;;;;;13.02;9.57;;;11.30;99.90;;;;;;4986508;28;20046;-79
2023/04/01 09:35:21;;;;;;;12.23;8.57;;;11.20;99.90;;;;;;4982656;28;20050;-80
2023/04/01 09:38:08;;;;;;;14.53;10.13;;;11.30;99.90;;;;;;4900191;29;20044;-80
2023/04/01 09:40:34;;;;;;;13.17;9.03;;;11.30;99.90;;;;;;4915556;29;20094;-78
2023/04/01 09:43:06;;;;;;;14.37;10.20;;;11.30;99.90;;;;;;4968383;28;20453;-81
2023/04/01 09:45:37;;;;;;;13.93;9.95;;;11.40;99.90;;;;;;5014665;28;20053;-80
2023/04/01 09:48:21;;;;;;;13.13;9.43;;;11.40;99.90;;;;;;5008987;28;20064;-80
2023/04/01 09:51:11;;;;;;;15.33;10.40;;;11.40;99.90;;;;;;4990704;28;20100;-80
2023/04/01 09:54:05;;;;;;;13.80;10.30;;;11.40;99.90;;;;;;5007051;28;20045;-79
2023/04/01 09:57:08;;;;;;;13.50;9.43;;;11.40;99.90;;;;;;5005606;28;20509;-80
2023/04/01 10:00:12;;;;;;;14.47;10.80;;;11.40;99.90;;;;;;5006850;28;20041;-79
2023/04/01 10:02:59;;;;;;;14.40;10.63;;;11.40;99.90;;;;;;5011839;28;20057;-80
2023/04/01 10:05:34;;;;;;;18.13;14.27;;;11.30;99.90;;;;;;4992851;28;20466;-79
2023/04/01 10:08:21;;;;;;;16.67;12.23;;;11.30;99.90;;;;;;4981105;28;20096;-79
2023/04/01 10:10:56;;;;;;;14.43;10.07;;;11.30;99.90;;;;;;4990357;28;20053;-80
2023/04/01 10:13:22;;;;;;;11.80;9.50;;;11.30;99.90;;;;;;5002189;28;20045;-82
2023/04/01 10:16:25;;;;;;;13.13;9.30;;;11.40;99.90;;;;;;4992680;28;20041;-80
2023/04/01 10:19:15;;;;;;;11.33;7.83;;;11.40;99.90;;;;;;5002760;28;20044;-80
2023/04/01 10:22:13;;;;;;;7.73;6.57;;;11.40;99.90;;;;;;5006776;28;20029;-80
2023/04/01 10:25:12;;;;;;;7.77;6.30;;;11.40;99.90;;;;;;4992693;28;20120;-81
2023/04/01 10:27:50;;;;;;;7.27;6.17;;;11.40;99.90;;;;;;4932893;28;20136;-81
2023/04/01 10:30:42;;;;;;;7.30;6.33;;;11.40;99.90;;;;;;5014345;28;20040;-80
2023/04/01 10:33:41;;;;;;;8.45;5.97;;;11.30;99.90;;;;;;4997707;28;20429;-80
2023/04/01 10:36:18;;;;;;;8.23;6.10;;;11.10;99.90;;;;;;4998476;28;20041;-81
2023/04/01 10:39:22;;;;;;;8.93;6.67;;;10.90;99.90;;;;;;5000237;28;20081;-80
2023/04/01 10:42:17;;;;;;;8.83;6.77;;;10.80;99.90;;;;;;5014568;28;20045;-80
2023/04/01 10:44:57;;;;;;;8.67;7.00;;;10.70;99.90;;;;;;4999650;28;20053;-80
2023/04/01 10:48:01;;;;;;;9.47;7.33;;;10.60;99.90;;;;;;4982283;28;20042;-79
2023/04/01 10:50:45;;;;;;;7.57;6.33;;;10.50;99.90;;;;;;4989083;28;20099;-81
2023/04/01 10:53:30;;;;;;;8.17;5.90;;;10.50;99.90;;;;;;4999670;28;20088;-80
2023/04/01 10:56:33;;;;;;;7.50;6.40;;;10.40;99.90;;;;;;5016118;28;20037;-81
2023/04/01 10:59:02;;;;;;;10.03;6.37;;;10.40;99.90;;;;;;4981099;28;20034;-82
2023/04/01 11:01:57;;;;;;;7.27;6.13;;;10.30;99.90;;;;;;4981333;28;20038;-82
2023/04/01 11:04:47;;;;;;;7.33;6.23;;;10.30;99.90;;;;;;4997290;28;20121;-82
2023/04/01 11:07:34;;;;;;;7.93;6.37;;;10.30;99.90;;;;;;4992582;28;20041;-81
2023/04/01 11:10:28;;;;;;;7.53;6.07;;;10.20;99.90;;;;;;4991549;28;20041;-81
2023/04/01 11:13:31;;;;;;;7.17;5.73;;;10.20;99.90;;;;;;4987075;28;20036;-82
2023/04/01 11:16:19;;;;;;;9.43;5.30;;;10.20;99.90;;;;;;4985663;28;20038;-81
2023/04/01 11:18:50;;;;;;;6.70;5.43;;;10.30;99.90;;;;;;5001255;28;20061;-82
2023/04/01 11:21:27;;;;;;;5.18;4.68;;;10.30;99.90;;;;;;5009111;28;20045;-81
2023/04/01 11:24:31;;;;;;;5.93;5.23;;;10.30;99.90;;;;;;5011050;28;20046;-82
2023/04/01 11:27:10;;;;;;;6.37;5.03;;;10.30;99.90;;;;;;4997127;28;20046;-82
2023/04/01 11:29:57;;;;;;;5.67;4.87;;;10.30;99.90;;;;;;4980164;28;20042;-83
2023/04/01 11:32:52;;;;;;;5.67;4.90;;;10.20;99.90;;;;;;5006810;28;20570;-82
2023/04/01 11:36:02;;;;;;;7.00;5.30;;;10.20;99.90;;;;;;4980262;28;20042;-82
2023/04/01 11:38:57;;;;;;;6.30;5.50;;;10.10;99.90;;;;;;5015544;28;20694;-82
2023/04/01 11:41:51;;;;;;;6.77;5.70;;;10.00;99.90;;;;;;4986040;28;20053;-80
2023/04/01 11:44:26;;;;;;;6.87;5.43;;;10.00;99.90;;;;;;5004473;28;20481;-80
2023/04/01 11:47:00;;;;;;;6.63;5.93;;;10.00;99.90;;;;;;5012364;28;20128;-83
2023/04/01 11:49:44;;;;;;;7.60;5.73;;;9.90;99.90;;;;;;4985847;28;20125;-82
2023/04/01 11:52:48;;;;;;;6.03;5.27;;;10.00;99.90;;;;;;4985426;28;20038;-83
2023/04/01 11:55:24;;;;;;;5.63;4.80;;;9.90;99.90;;;;;;5001542;28;20814;-83
2023/04/01 11:58:31;;;;;;;6.50;4.70;;;9.90;99.90;;;;;;5003553;28;20046;-81
2023/04/01 12:01:23;;;;;;;4.73;4.33;;;9.90;99.90;;;;;;4917283;29;20082;-81
2023/04/01 12:04:25;;;;;;;4.45;3.80;;;10.00;99.90;;;;;;5000872;28;20520;-81
2023/04/01 12:06:54;;;;;;;5.35;4.35;;;9.90;99.90;;;;;;4981628;28;20564;-82
2023/04/01 12:09:33;;;;;;;4.33;3.93;;;10.00;99.90;;;;;;4994152;28;20049;-82
2023/04/01 12:12:11;;;;;;;4.70;4.30;;;10.00;99.90;;;;;;4994625;28;20120;-81
2023/04/01 12:14:43;;;;;;;4.30;3.90;;;10.00;99.90;;;;;;4990297;28;20417;-82
2023/04/01 12:17:27;;;;;;;4.17;3.77;;;10.10;99.90;;;;;;5014852;28;20824;-83
2023/04/01 12:20:39;;;;;;;4.20;3.80;;;10.10;99.90;;;;;;4995191;28;20052;-81
2023/04/01 12:23:16;;;;;;;3.93;3.63;;;10.10;99.90;;;;;;5009054;28;20052;-83
2023/04/01 12:25:56;;;;;;;4.77;4.00;;;10.10;99.90;;;;;;4997019;28;20738;-82
2023/04/01 12:28:46;;;;;;;4.87;4.37;;;10.10;99.90;;;;;;4997894;28;20056;-81
2023/04/01 12:31:22;;;;;;;4.80;4.17;;;10.00;99.90;;;;;;5002981;28;20037;-82
2023/04/01 12:34:25;;;;;;;4.90;4.50;;;10.00;99.90;;;;;;5002386;28;20037;-81
2023/04/01 12:36:54;;;;;;;4.80;4.40;;;10.00;99.90;;;;;;4998609;28;20041;-82
2023/04/01 12:40:06;;;;;;;4.57;4.17;;;10.00;99.90;;;;;;4999332;28;20413;-81
2023/04/01 12:42:46;;;;;;;4.83;4.37;;;9.90;99.90;;;;;;4992782;28;20081;-80
2023/04/01 12:45:32;;;;;;;4.47;4.07;;;9.90;99.90;;;;;;5013540;28;20084;-83
2023/04/01 12:48:16;;;;;;;4.87;4.47;;;9.80;99.90;;;;;;4983971;28;20037;-81
2023/04/01 12:51:17;;;;;;;4.60;4.20;;;9.80;99.90;;;;;;4984309;28;20168;-81
2023/04/01 12:53:48;;;;;;;4.57;4.17;;;9.70;99.90;;;;;;5001012;28;20042;-80
2023/04/01 12:56:50;;;;;;;4.40;4.00;;;9.70;99.90;;;;;;5008907;28;20045;-82
2023/04/01 12:59:43;;;;;;;3.97;3.63;;;9.60;99.90;;;;;;4956355;28;20140;-82
2023/04/01 13:02:30;;;;;;;4.30;3.90;;;9.60;99.90;;;;;;4995076;28;20557;-79
2023/04/01 13:05:16;;;;;;;4.47;4.07;;;9.60;99.90;;;;;;4991819;28;20052;-82
2023/04/01 13:07:50;;;;;;;3.97;3.67;;;9.60;99.90;;;;;;4983250;28;20033;-82
2023/04/01 13:10:32;;;;;;;3.77;3.37;;;9.60;99.90;;;;;;4999770;28;20049;-80
2023/04/01 13:13:19;;;;;;;3.78;3.47;;;9.60;99.90;;;;;;4996722;28;20077;-80
2023/04/01 13:15:57;;;;;;;4.27;3.73;;;9.60;99.90;;;;;;5004259;28;20065;-81
2023/04/01 13:18:54;;;;;;;4.37;3.97;;;9.60;99.90;;;;;;4997885;28;20118;-81
2023/04/01 13:21:38;;;;;;;4.27;3.87;;;9.60;99.90;;;;;;4994058;28;20038;-80
2023/04/01 13:24:23;;;;;;;3.80;3.40;;;9.60;99.90;;;;;;4997596;28;20042;-80
2023/04/01 13:27:04;;;;;;;3.60;3.30;;;9.50;99.90;;;;;;4996448;28;20038;-80
2023/04/01 13:29:38;;;;;;;3.70;3.40;;;9.50;99.90;;;;;;4996757;28;20119;-80
2023/04/01 13:32:40;;;;;;;3.10;2.83;;;9.40;99.90;;;;;;4995846;28;20544;-80